createdAt,value
2019-03-29T00:01:38.306Z,13.85
2019-03-29T00:04:06.379Z,14.43
2019-03-29T00:06:34.502Z,14.68
2019-03-29T00:09:03.067Z,14.98
2019-03-29T00:11:31.175Z,13.68
2019-03-29T00:13:59.600Z,13.55
2019-03-29T00:16:27.955Z,14.85
2019-03-29T00:18:57.808Z,15.88
2019-03-29T00:21:26.607Z,15.32
2019-03-29T00:24:06.135Z,15.55
2019-03-29T00:26:25.589Z,16.70
2019-03-29T00:28:54.193Z,16.75
2019-03-29T00:31:22.686Z,18.00
2019-03-29T00:33:51.041Z,16.52
2019-03-29T00:36:18.939Z,16.75
2019-03-29T00:38:47.000Z,15.90
2019-03-29T00:41:15.393Z,16.95
2019-03-29T00:43:44.603Z,17.98
2019-03-29T00:46:12.306Z,16.80
2019-03-29T00:48:40.928Z,16.50
2019-03-29T00:51:10.199Z,16.85
2019-03-29T00:53:37.983Z,17.10
2019-03-29T00:56:06.491Z,17.55
2019-03-29T00:58:34.966Z,18.75
2019-03-29T01:01:03.575Z,19.30
2019-03-29T01:03:32.349Z,20.08
2019-03-29T01:06:00.262Z,19.12
2019-03-29T01:08:28.800Z,18.77
2019-03-29T01:10:58.390Z,19.45
2019-03-29T01:13:26.286Z,18.55
2019-03-29T01:15:54.301Z,18.42
2019-03-29T01:18:22.279Z,19.65
2019-03-29T01:20:50.363Z,20.85
2019-03-29T01:23:19.051Z,20.20
2019-03-29T01:25:46.974Z,22.77
2019-03-29T01:28:17.416Z,22.62
2019-03-29T01:30:45.475Z,21.42
2019-03-29T01:33:13.651Z,22.20
2019-03-29T01:35:41.388Z,20.90
2019-03-29T01:38:21.154Z,23.02
2019-03-29T01:40:40.439Z,21.85
2019-03-29T01:43:08.238Z,23.22
2019-03-29T01:45:36.627Z,22.45
2019-03-29T01:48:04.942Z,22.27
2019-03-29T01:50:33.044Z,23.92
2019-03-29T01:53:01.136Z,25.68
2019-03-29T01:55:29.159Z,27.50
2019-03-29T01:57:57.255Z,26.50
2019-03-29T02:00:32.268Z,24.50
2019-03-29T02:03:01.468Z,24.85
2019-03-29T02:05:29.972Z,25.92
2019-03-29T02:07:58.675Z,23.85
2019-03-29T02:10:28.606Z,26.20
2019-03-29T02:12:57.609Z,27.98
2019-03-29T02:15:25.491Z,26.90
2019-03-29T02:17:54.107Z,30.17
2019-03-29T02:20:23.851Z,28.12
2019-03-29T02:22:51.803Z,26.10
2019-03-29T02:25:20.483Z,27.32
2019-03-29T02:27:48.556Z,29.12
2019-03-29T02:30:17.266Z,30.60
2019-03-29T02:32:45.007Z,29.67
2019-03-29T02:35:13.278Z,30.40
2019-03-29T02:37:42.448Z,33.13
2019-03-29T02:40:10.400Z,33.40
2019-03-29T02:42:39.456Z,31.55
2019-03-29T02:45:08.329Z,33.23
2019-03-29T02:47:36.203Z,28.85
2019-03-29T02:50:05.188Z,36.35
2019-03-29T02:52:33.788Z,34.60
2019-03-29T02:55:02.667Z,36.33
2019-03-29T02:57:30.717Z,34.78
2019-03-29T02:59:58.906Z,41.30
2019-03-29T03:02:27.277Z,38.53
2019-03-29T03:04:55.084Z,37.83
2019-03-29T03:07:24.420Z,38.02
2019-03-29T03:09:52.636Z,37.03
2019-03-29T03:12:20.563Z,40.25
2019-03-29T03:14:49.481Z,34.65
2019-03-29T03:17:18.280Z,40.52
2019-03-29T03:19:46.304Z,38.35
2019-03-29T03:22:14.193Z,35.35
2019-03-29T03:24:44.827Z,34.65
2019-03-29T03:27:13.206Z,36.30
2019-03-29T03:29:48.149Z,41.92
2019-03-29T03:32:15.743Z,39.20
2019-03-29T03:34:44.643Z,39.88
2019-03-29T03:37:13.774Z,37.75
2019-03-29T03:39:43.249Z,38.55
2019-03-29T03:42:11.022Z,43.38
2019-03-29T03:44:39.649Z,38.25
2019-03-29T03:47:07.719Z,38.42
2019-03-29T03:49:35.626Z,37.50
2019-03-29T03:52:04.189Z,41.30
2019-03-29T03:54:32.123Z,29.90
2019-03-29T03:57:00.127Z,34.70
2019-03-29T03:59:29.386Z,37.17
2019-03-29T04:01:57.563Z,38.33
2019-03-29T04:04:26.476Z,41.13
2019-03-29T04:06:56.259Z,37.00
2019-03-29T04:09:24.131Z,40.30
2019-03-29T04:11:52.890Z,30.35
2019-03-29T04:14:22.797Z,39.27
2019-03-29T04:16:51.178Z,41.05
2019-03-29T04:19:20.754Z,41.13
2019-03-29T04:21:49.190Z,41.75
2019-03-29T04:24:17.100Z,42.78
2019-03-29T04:26:46.023Z,43.30
2019-03-29T04:29:14.121Z,38.40
2019-03-29T04:31:43.054Z,41.30
2019-03-29T04:34:10.925Z,39.15
2019-03-29T04:36:39.493Z,42.27
2019-03-29T04:39:09.142Z,40.20
2019-03-29T04:41:37.334Z,42.58
2019-03-29T04:44:05.390Z,40.00
2019-03-29T04:46:33.400Z,43.87
2019-03-29T04:49:01.495Z,39.42
2019-03-29T04:51:29.807Z,35.48
2019-03-29T04:53:57.775Z,41.37
2019-03-29T04:56:26.416Z,39.90
2019-03-29T04:58:55.328Z,41.83
2019-03-29T05:01:23.435Z,37.10
2019-03-29T05:03:51.970Z,37.67
2019-03-29T05:06:19.996Z,38.50
2019-03-29T05:08:48.197Z,36.38
2019-03-29T05:11:16.039Z,37.50
2019-03-29T05:13:44.145Z,42.08
2019-03-29T05:16:14.286Z,39.45
2019-03-29T05:18:42.414Z,41.88
2019-03-29T05:21:10.692Z,34.73
2019-03-29T05:23:38.911Z,40.23
2019-03-29T05:26:07.175Z,45.60
2019-03-29T05:28:36.001Z,38.83
2019-03-29T05:31:05.102Z,39.42
2019-03-29T05:33:33.011Z,37.95
2019-03-29T05:36:01.082Z,39.25
2019-03-29T05:38:29.386Z,41.35
2019-03-29T05:40:57.492Z,44.13
2019-03-29T05:43:25.943Z,47.17
2019-03-29T05:45:54.029Z,38.30
2019-03-29T05:48:22.165Z,40.52
2019-03-29T05:50:50.530Z,38.60
2019-03-29T05:53:18.490Z,36.83
2019-03-29T05:55:48.293Z,37.00
2019-03-29T05:58:16.336Z,38.15
2019-03-29T06:00:46.959Z,31.33
2019-03-29T06:03:15.361Z,34.27
2019-03-29T06:05:43.958Z,36.45
2019-03-29T06:08:11.762Z,37.63
2019-03-29T06:10:48.874Z,33.08
2019-03-29T06:13:10.743Z,31.57
2019-03-29T06:15:38.666Z,33.80
2019-03-29T06:18:07.203Z,26.33
2019-03-29T06:20:35.906Z,36.05
2019-03-29T06:23:05.803Z,27.07
2019-03-29T06:25:35.554Z,31.10
2019-03-29T06:28:03.879Z,27.95
2019-03-29T06:30:32.413Z,29.45
2019-03-29T06:33:01.320Z,24.95
2019-03-29T06:35:36.415Z,33.13
2019-03-29T06:38:05.865Z,28.47
2019-03-29T06:40:34.134Z,27.37
2019-03-29T06:43:02.182Z,28.20
2019-03-29T06:45:30.155Z,27.40
2019-03-29T06:48:01.163Z,25.68
2019-03-29T06:50:29.980Z,25.80
2019-03-29T06:52:58.004Z,26.27
2019-03-29T06:55:26.755Z,24.18
2019-03-29T06:57:54.814Z,22.73
2019-03-29T07:00:24.502Z,21.45
2019-03-29T07:02:53.498Z,24.87
2019-03-29T07:05:21.833Z,23.25
2019-03-29T07:07:49.872Z,20.23
2019-03-29T07:10:18.786Z,24.00
2019-03-29T07:12:47.760Z,21.87
2019-03-29T07:15:17.556Z,20.80
2019-03-29T07:17:45.668Z,20.80
2019-03-29T07:20:14.160Z,22.58
2019-03-29T07:22:42.579Z,19.90
2019-03-29T07:25:10.795Z,18.90
2019-03-29T07:27:46.663Z,19.30
2019-03-29T07:30:11.352Z,21.33
2019-03-29T07:32:41.543Z,20.88
2019-03-29T07:35:09.733Z,20.10
2019-03-29T07:37:38.280Z,21.23
2019-03-29T07:40:06.816Z,22.82
2019-03-29T07:42:35.399Z,19.55
2019-03-29T07:45:03.959Z,16.52
2019-03-29T07:47:32.400Z,20.43
2019-03-29T07:50:00.411Z,21.15
2019-03-29T07:52:28.190Z,19.75
2019-03-29T07:54:56.588Z,21.48
2019-03-29T07:57:24.595Z,19.42
2019-03-29T07:59:52.691Z,21.15
2019-03-29T08:02:21.120Z,20.88
2019-03-29T08:04:51.958Z,17.60
2019-03-29T08:07:27.156Z,17.95
2019-03-29T08:09:50.200Z,21.17
2019-03-29T08:12:17.987Z,24.35
2019-03-29T08:14:46.650Z,17.92
2019-03-29T08:17:15.594Z,17.32
2019-03-29T08:19:43.976Z,14.47
2019-03-29T08:22:12.064Z,17.25
2019-03-29T08:24:39.815Z,11.53
2019-03-29T08:27:08.042Z,16.27
2019-03-29T08:29:36.452Z,16.82
2019-03-29T08:32:04.671Z,16.55
2019-03-29T08:34:35.767Z,15.58
2019-03-29T08:37:03.258Z,14.50
2019-03-29T08:39:31.865Z,16.07
2019-03-29T08:42:00.878Z,14.75
2019-03-29T08:44:28.729Z,19.20
2019-03-29T08:46:57.313Z,13.62
2019-03-29T08:49:25.793Z,15.53
2019-03-29T08:51:54.396Z,12.40
2019-03-29T08:54:24.767Z,15.63
2019-03-29T08:56:53.808Z,15.58
2019-03-29T08:59:22.043Z,13.70
2019-03-29T09:01:50.144Z,11.45
2019-03-29T09:04:21.499Z,15.00
2019-03-29T09:06:53.652Z,8.10
2019-03-29T09:09:18.782Z,12.45
2019-03-29T09:11:47.047Z,14.20
2019-03-29T09:14:16.847Z,15.90
2019-03-29T09:16:45.165Z,13.97
2019-03-29T09:19:15.062Z,15.58
2019-03-29T09:21:45.147Z,18.25
2019-03-29T09:24:21.970Z,13.32
2019-03-29T09:26:42.762Z,15.50
2019-03-29T09:29:10.851Z,16.07
2019-03-29T09:31:39.440Z,11.93
2019-03-29T09:34:08.347Z,12.50
2019-03-29T09:36:36.562Z,13.40
2019-03-29T09:39:06.048Z,14.65
2019-03-29T09:41:35.714Z,11.15
2019-03-29T09:44:04.777Z,12.55
2019-03-29T09:46:32.749Z,12.82
2019-03-29T09:49:01.080Z,13.35
2019-03-29T09:51:28.995Z,14.98
2019-03-29T09:53:58.000Z,13.68
2019-03-29T09:56:38.539Z,11.43
2019-03-29T09:58:59.207Z,13.28
2019-03-29T10:01:28.664Z,11.05
2019-03-29T10:03:57.079Z,12.23
2019-03-29T10:06:25.102Z,13.13
2019-03-29T10:08:53.584Z,9.93
2019-03-29T10:11:22.348Z,13.13
2019-03-29T10:13:50.845Z,9.53
2019-03-29T10:16:21.526Z,11.03
2019-03-29T10:21:17.758Z,5.60
2019-03-29T10:23:45.592Z,8.03
2019-03-29T10:26:15.068Z,7.05
2019-03-29T10:28:44.318Z,8.83
2019-03-29T10:31:12.746Z,9.00
2019-03-29T10:33:41.495Z,8.53
2019-03-29T10:36:09.799Z,8.78
2019-03-29T10:38:38.847Z,7.75
2019-03-29T10:41:06.887Z,7.50
2019-03-29T10:43:35.250Z,6.10
2019-03-29T10:46:03.255Z,7.50
2019-03-29T10:48:31.255Z,9.83
2019-03-29T10:50:59.234Z,8.60
2019-03-29T10:53:29.064Z,7.37
2019-03-29T10:55:57.364Z,10.13
2019-03-29T10:58:25.606Z,9.68
2019-03-29T11:00:53.751Z,9.93
2019-03-29T11:03:21.986Z,10.60
2019-03-29T11:05:49.915Z,10.15
2019-03-29T11:08:18.213Z,9.40
2019-03-29T11:10:46.480Z,11.48
2019-03-29T11:13:15.557Z,9.53
2019-03-29T11:15:44.304Z,7.72
2019-03-29T11:18:12.222Z,9.48
2019-03-29T11:20:40.581Z,10.35
2019-03-29T11:23:08.963Z,7.37
2019-03-29T11:25:36.978Z,7.33
2019-03-29T11:28:04.802Z,12.13
2019-03-29T11:30:42.016Z,10.32
2019-03-29T11:33:04.666Z,11.05
2019-03-29T11:35:33.080Z,11.40
2019-03-29T11:38:01.756Z,11.28
2019-03-29T11:40:29.890Z,9.25
2019-03-29T11:42:58.092Z,13.80
2019-03-29T11:45:26.575Z,12.50
2019-03-29T11:48:07.279Z,10.03
2019-03-29T11:50:25.104Z,13.45
2019-03-29T11:52:53.843Z,9.58
2019-03-29T11:55:21.943Z,10.68
2019-03-29T11:57:51.657Z,11.05
2019-03-29T12:00:35.386Z,8.77
2019-03-29T12:03:03.378Z,10.15
2019-03-29T12:05:31.910Z,8.18
2019-03-29T12:08:01.923Z,10.50
2019-03-29T12:10:31.099Z,10.53
2019-03-29T12:12:59.747Z,11.83
2019-03-29T12:15:29.385Z,12.47
2019-03-29T12:17:58.446Z,12.30
2019-03-29T12:20:27.325Z,11.10
2019-03-29T12:22:55.202Z,10.80
2019-03-29T12:25:23.706Z,11.28
2019-03-29T12:27:52.068Z,13.15
2019-03-29T12:30:31.508Z,13.58
2019-03-29T12:32:50.927Z,12.40
2019-03-29T12:35:18.881Z,10.93
2019-03-29T12:37:47.371Z,11.22
2019-03-29T12:40:15.695Z,11.70
2019-03-29T12:42:43.482Z,9.18
2019-03-29T12:45:12.763Z,11.05
2019-03-29T12:47:40.509Z,12.95
2019-03-29T12:50:09.615Z,10.98
2019-03-29T12:52:38.305Z,13.28
2019-03-29T12:55:06.475Z,11.75
2019-03-29T12:57:34.513Z,13.40
2019-03-29T13:00:02.277Z,12.70
2019-03-29T13:02:34.394Z,10.93
2019-03-29T13:07:28.816Z,12.28
2019-03-29T13:09:58.317Z,13.83
2019-03-29T13:12:26.481Z,12.82
2019-03-29T13:14:54.552Z,11.35
2019-03-29T13:17:22.762Z,11.48
2019-03-29T13:19:51.289Z,11.55
2019-03-29T13:22:19.835Z,12.13
2019-03-29T13:24:49.198Z,12.35
2019-03-29T13:27:17.170Z,13.05
2019-03-29T13:29:46.289Z,13.90
2019-03-29T13:32:14.359Z,12.45
2019-03-29T13:34:42.993Z,11.83
2019-03-29T13:37:11.899Z,11.68
2019-03-29T13:39:40.052Z,13.20
2019-03-29T13:42:08.518Z,13.15
2019-03-29T13:44:36.949Z,12.78
2019-03-29T13:47:05.149Z,12.10
2019-03-29T13:49:33.280Z,12.75
2019-03-29T13:52:01.651Z,12.85
2019-03-29T13:54:29.425Z,13.53
2019-03-29T13:56:57.714Z,13.45
2019-03-29T13:59:26.653Z,11.88
2019-03-29T14:01:55.416Z,11.53
2019-03-29T14:04:24.598Z,12.80
2019-03-29T14:06:52.329Z,13.03
2019-03-29T14:09:21.408Z,10.43
2019-03-29T14:11:50.347Z,13.10
2019-03-29T14:14:18.191Z,12.37
2019-03-29T14:16:46.315Z,12.90
2019-03-29T14:19:14.188Z,12.37
2019-03-29T14:21:42.991Z,12.93
2019-03-29T14:24:11.356Z,11.88
2019-03-29T14:26:39.838Z,10.98
2019-03-29T14:29:09.986Z,10.60
2019-03-29T14:31:37.883Z,12.90
2019-03-29T14:34:07.061Z,13.65
2019-03-29T14:36:35.539Z,13.83
2019-03-29T14:39:05.768Z,10.82
2019-03-29T14:41:34.022Z,11.78
2019-03-29T14:44:02.046Z,12.05
2019-03-29T14:46:30.919Z,12.45
2019-03-29T14:48:59.099Z,12.07
2019-03-29T14:51:28.119Z,13.72
2019-03-29T14:53:57.527Z,13.98
2019-03-29T14:56:26.332Z,11.05
2019-03-29T14:58:54.391Z,11.90
2019-03-29T15:01:22.178Z,13.05
2019-03-29T15:03:50.089Z,12.80
2019-03-29T15:06:18.580Z,13.53
2019-03-29T15:08:49.903Z,12.82
2019-03-29T15:11:22.561Z,11.60
2019-03-29T15:13:48.582Z,13.18
2019-03-29T15:16:16.854Z,14.20
2019-03-29T15:18:46.005Z,12.65
2019-03-29T15:21:14.035Z,14.33
2019-03-29T15:23:42.746Z,14.23
2019-03-29T15:26:11.032Z,12.88
2019-03-29T15:28:39.667Z,12.88
2019-03-29T15:31:08.573Z,13.68
2019-03-29T15:33:37.386Z,11.95
2019-03-29T15:36:06.381Z,12.88
2019-03-29T15:38:34.865Z,13.13
2019-03-29T15:41:03.528Z,11.55
2019-03-29T15:43:31.711Z,11.60
2019-03-29T15:46:00.163Z,12.15
2019-03-29T15:48:28.367Z,13.20
2019-03-29T15:50:56.821Z,12.90
2019-03-29T15:53:25.136Z,13.15
2019-03-29T15:55:52.997Z,13.10
2019-03-29T15:58:22.266Z,12.88
2019-03-29T16:00:51.056Z,11.93
2019-03-29T16:03:19.184Z,12.30
2019-03-29T16:05:48.622Z,12.00
2019-03-29T16:08:16.891Z,13.48
2019-03-29T16:10:45.074Z,13.15
2019-03-29T16:13:15.618Z,14.15
2019-03-29T16:19:26.438Z,11.63
2019-03-29T16:21:54.223Z,14.23
2019-03-29T16:24:22.886Z,13.93
2019-03-29T16:26:51.047Z,12.05
2019-03-29T16:29:19.952Z,13.65
2019-03-29T16:31:48.106Z,12.10
2019-03-29T16:34:16.348Z,13.85
2019-03-29T16:36:44.223Z,13.43
2019-03-29T16:39:12.471Z,13.30
2019-03-29T16:41:40.250Z,13.40
2019-03-29T16:44:08.385Z,13.80
2019-03-29T16:46:36.540Z,14.13
2019-03-29T16:49:07.965Z,14.50
2019-03-29T16:51:36.254Z,13.60
2019-03-29T16:54:05.832Z,14.65
2019-03-29T16:56:34.311Z,14.17
2019-03-29T16:59:02.544Z,13.65
2019-03-29T17:01:30.513Z,14.23
2019-03-29T17:03:59.648Z,15.15
2019-03-29T17:06:27.835Z,13.58
2019-03-29T17:08:55.962Z,14.60
2019-03-29T17:11:26.375Z,15.72
2019-03-29T17:13:56.185Z,14.30
2019-03-29T17:16:30.177Z,14.25
2019-03-29T17:18:55.160Z,14.73
2019-03-29T17:21:25.692Z,14.83
2019-03-29T17:23:53.792Z,14.73
2019-03-29T17:26:22.232Z,14.87
2019-03-29T17:28:52.326Z,16.02
2019-03-29T17:31:20.944Z,15.68
2019-03-29T17:33:48.755Z,16.62
2019-03-29T17:36:19.942Z,15.20
2019-03-29T17:38:48.525Z,16.07
2019-03-29T17:41:16.619Z,15.48
2019-03-29T17:43:45.071Z,15.43
2019-03-29T17:46:16.673Z,17.02
2019-03-29T17:48:45.593Z,15.25
2019-03-29T17:51:17.896Z,16.67
2019-03-29T17:53:46.021Z,15.72
2019-03-29T17:56:13.891Z,15.60
2019-03-29T17:58:42.734Z,15.10
2019-03-29T18:01:10.796Z,15.55
2019-03-29T18:03:38.575Z,15.63
2019-03-29T18:06:07.784Z,15.60
2019-03-29T18:08:36.507Z,15.72
2019-03-29T18:11:05.462Z,15.50
2019-03-29T18:13:35.502Z,15.72
2019-03-29T18:16:04.177Z,17.05
2019-03-29T18:18:32.334Z,15.98
2019-03-29T18:21:00.374Z,16.15
2019-03-29T18:23:28.663Z,15.58
2019-03-29T18:25:56.739Z,16.17
2019-03-29T18:28:25.108Z,17.67
2019-03-29T18:30:52.947Z,17.87
2019-03-29T18:33:21.341Z,18.07
2019-03-29T18:35:49.120Z,17.23
2019-03-29T18:38:18.620Z,16.65
2019-03-29T18:40:47.100Z,15.78
2019-03-29T18:43:15.067Z,15.90
2019-03-29T18:45:43.174Z,15.88
2019-03-29T18:48:11.929Z,16.23
2019-03-29T18:50:41.545Z,16.30
2019-03-29T18:53:09.822Z,16.48
2019-03-29T18:55:38.287Z,15.45
2019-03-29T18:58:07.105Z,17.05
2019-03-29T19:00:35.696Z,16.85
2019-03-29T19:03:03.626Z,17.73
2019-03-29T19:05:31.919Z,17.98
2019-03-29T19:08:00.028Z,17.73
2019-03-29T19:10:30.531Z,17.42
2019-03-29T19:12:58.501Z,16.55
2019-03-29T19:15:26.606Z,17.57
2019-03-29T19:17:55.740Z,16.95
2019-03-29T19:20:27.978Z,17.10
2019-03-29T19:22:54.564Z,17.42
2019-03-29T19:25:23.509Z,19.35
2019-03-29T19:27:51.694Z,20.90
2019-03-29T19:30:20.394Z,20.27
2019-03-29T19:32:48.198Z,19.80
2019-03-29T19:35:16.976Z,17.73
2019-03-29T19:37:46.203Z,16.48
2019-03-29T19:40:14.489Z,16.35
2019-03-29T19:42:42.424Z,17.92
2019-03-29T19:45:11.002Z,16.95
2019-03-29T19:47:39.153Z,18.48
2019-03-29T19:50:07.453Z,18.17
2019-03-29T19:52:36.546Z,18.35
2019-03-29T19:55:07.029Z,18.80
2019-03-29T19:57:35.889Z,17.82
2019-03-29T20:00:06.523Z,17.80
2019-03-29T20:05:02.184Z,18.23
2019-03-29T20:07:33.896Z,18.85
2019-03-29T20:10:05.979Z,17.20
2019-03-29T20:12:36.021Z,17.80
2019-03-29T20:15:06.688Z,17.33
2019-03-29T20:20:22.338Z,17.30
2019-03-29T20:22:51.740Z,18.30
2019-03-29T20:25:20.630Z,18.42
2019-03-29T20:27:49.415Z,18.57
2019-03-29T20:30:18.230Z,18.17
2019-03-29T20:32:47.170Z,17.73
2019-03-29T20:35:15.636Z,18.77
2019-03-29T20:37:44.618Z,18.17
2019-03-29T20:40:13.860Z,18.05
2019-03-29T20:42:42.988Z,19.15
2019-03-29T20:45:11.484Z,18.10
2019-03-29T20:47:42.214Z,19.00
2019-03-29T20:50:10.755Z,18.52
2019-03-29T20:52:40.566Z,19.50
2019-03-29T20:55:11.994Z,18.07
2019-03-29T20:57:40.024Z,18.87
2019-03-29T21:00:09.316Z,18.27
2019-03-29T21:02:37.443Z,18.62
2019-03-29T21:05:05.905Z,17.67
2019-03-29T21:07:34.408Z,17.20
2019-03-29T21:10:03.168Z,18.20
2019-03-29T21:12:31.906Z,17.92
2019-03-29T21:15:00.257Z,18.92
2019-03-29T21:17:28.409Z,18.77
2019-03-29T21:19:56.555Z,18.80
2019-03-29T21:22:25.180Z,20.10
2019-03-29T21:24:53.314Z,19.45
2019-03-29T21:27:21.608Z,18.52
2019-03-29T21:29:50.170Z,18.62
2019-03-29T21:32:18.736Z,19.35
2019-03-29T21:34:48.376Z,19.65
2019-03-29T21:37:16.823Z,19.00
2019-03-29T21:39:44.946Z,18.65
2019-03-29T21:42:13.572Z,18.23
2019-03-29T21:44:45.252Z,18.42
2019-03-29T21:47:14.001Z,18.42
2019-03-29T21:49:42.540Z,18.87
2019-03-29T21:52:11.929Z,18.48
2019-03-29T21:54:40.562Z,18.17
2019-03-29T21:57:09.142Z,18.60
2019-03-29T21:59:37.768Z,19.55
2019-03-29T22:02:07.917Z,19.48
2019-03-29T22:04:48.367Z,19.00
2019-03-29T22:07:16.411Z,18.80
2019-03-29T22:09:52.645Z,19.32
2019-03-29T22:12:20.708Z,19.70
2019-03-29T22:14:48.913Z,18.98
2019-03-29T22:17:17.540Z,18.45
2019-03-29T22:19:45.600Z,19.05
2019-03-29T22:22:15.062Z,19.42
2019-03-29T22:24:44.082Z,18.98
2019-03-29T22:27:14.009Z,18.17
2019-03-29T22:29:42.204Z,19.15
2019-03-29T22:32:11.015Z,18.52
2019-03-29T22:34:40.727Z,18.80
2019-03-29T22:37:10.396Z,19.48
2019-03-29T22:39:38.562Z,18.92
2019-03-29T22:42:07.676Z,20.43
2019-03-29T22:44:37.285Z,20.30
2019-03-29T22:47:05.566Z,21.17
2019-03-29T22:49:33.993Z,22.65
2019-03-29T22:52:02.816Z,22.40
2019-03-29T22:54:31.287Z,22.40
2019-03-29T22:56:59.433Z,21.73
2019-03-29T22:59:27.847Z,20.57
2019-03-29T23:01:56.357Z,21.15
2019-03-29T23:04:25.007Z,19.73
2019-03-29T23:06:53.815Z,19.90
2019-03-29T23:09:22.394Z,20.45
2019-03-29T23:11:52.331Z,20.92
2019-03-29T23:14:22.271Z,20.97
2019-03-29T23:16:50.410Z,20.62
2019-03-29T23:19:18.571Z,20.43
2019-03-29T23:21:46.754Z,21.70
2019-03-29T23:24:15.302Z,22.05
2019-03-29T23:26:43.863Z,23.18
2019-03-29T23:29:11.959Z,27.22
2019-03-29T23:31:40.451Z,25.23
2019-03-29T23:34:08.628Z,24.07
2019-03-29T23:36:39.169Z,23.12
2019-03-29T23:39:07.320Z,24.25
2019-03-29T23:41:37.026Z,23.22
2019-03-29T23:44:06.022Z,22.48
2019-03-29T23:46:34.985Z,24.10
2019-03-29T23:49:04.453Z,20.05
2019-03-29T23:51:32.566Z,18.35
2019-03-29T23:54:00.959Z,18.85
2019-03-29T23:56:29.055Z,21.90
2019-03-29T23:58:57.461Z,22.55
